Featherstone, United Kingdom
Current Conditions -  °F | °C
As of 4:50 PM on Wednesday 22 Oct 2014 (Local Time) from EGBB Reporting Station
Scattered Clouds Scattered Clouds  
Wind Chill: 52°   Ceiling: Unl
Heat Index: 52°   Visibility: 6mi
Dew Point: 46°   Wind: 7mph
Humidity: 82%   Direction: 210°SSW
Pressure: 30.18"   Gusts: NA
Location:  52.64°N, 2.09°W
Report Text: EGBB 221550Z 21006KT 9999 SCT027 11/08 Q1022
Loading
Personal Weather Stations






























Interactive Weather Map
Tropical Storm Tracking
New forecast layout! Learn more

10-Day Weather Forecast

Advertisements
Track Severe Weather on mobile